KRST

Rochester International Airport

Rochester, Minnesota, USA
KRST 221626Z 2216/2312 10007KT 3SM -FZDZSN BR OVC006 FM221800 36009KT 2SM -SN BR OVC005 FM222100 36009KT 1SM -SN BKN008 FM230300 35010KT 2SM -SN OVC012 FM230800 34011KT 5SM -SN OVC012
Issued Valid From Valid To
Jan-22 @ 16:26 UTC
(26 minutes ago)
Jan-22 @ 16:00 UTC
(52 minutes ago)
Jan-23 @ 12:00 UTC
(in 19 hours)
Jan-22 @ 16:00 to Jan-22 @ 18:00
KRST 221626Z 2216/2312 10007KT 3SM -FZDZSN BR OVC006
Wind Visibility Clouds Conditions
100° at 7 knots 3 miles
  • Overcast at 600' AGL
  • Light Freezing
  • Light Drizzle
  • Snow
  • Mist
From Jan-22 @ 18:00 to Jan-22 @ 21:00
FM221800 36009KT 2SM -SN BR OVC005
Wind Visibility Clouds Conditions
360° at 9 knots 2 miles
  • Overcast at 500' AGL
  • Light Snow
  • Mist
From Jan-22 @ 21:00 to Jan-23 @ 03:00
FM222100 36009KT 1SM -SN BKN008
Wind Visibility Clouds Conditions
360° at 9 knots 1 miles
  • Broken at 800' AGL
  • Light Snow
From Jan-23 @ 03:00 to Jan-23 @ 08:00
FM230300 35010KT 2SM -SN OVC012
Wind Visibility Clouds Conditions
350° at 10 knots 2 miles
  • Overcast at 1,200' AGL
  • Light Snow
From Jan-23 @ 08:00 to Jan-23 @ 12:00
FM230800 34011KT 5SM -SN OVC012
Wind Visibility Clouds Conditions
340° at 11 knots 5 miles
  • Overcast at 1,200' AGL
  • Light Snow
KRST 221626Z 2216/2312 10007KT 3SM -FZDZSN BR OVC006 FM221800 36009KT 2SM -SN BR OVC005 FM222100 36009KT 1SM -SN BKN008 FM230300 35010KT 2SM -SN OVC012 FM230800 34011KT 5SM -SN OVC012
Issued Jan-22 @ 16:26 UTC
(26 minutes ago)
Valid From Jan-22 @ 16:00 UTC
(52 minutes ago)
Valid To Jan-23 @ 12:00 UTC
(in 19 hours)
Jan-22 @ 16:00 - Jan-22 @ 18:00
Wind Visibility
100° at 7 knots 3 miles
Clouds
  • Overcast at 600' AGL
Conditions
  • Light Freezing
  • Light Drizzle
  • Snow
  • Mist
From Jan-22 @ 18:00 - Jan-22 @ 21:00
Wind Visibility
360° at 9 knots 2 miles
Clouds
  • Overcast at 500' AGL
Conditions
  • Light Snow
  • Mist
From Jan-22 @ 21:00 - Jan-23 @ 03:00
Wind Visibility
360° at 9 knots 1 miles
Clouds
  • Broken at 800' AGL
Conditions
  • Light Snow
From Jan-23 @ 03:00 - Jan-23 @ 08:00
Wind Visibility
350° at 10 knots 2 miles
Clouds
  • Overcast at 1,200' AGL
Conditions
  • Light Snow
From Jan-23 @ 08:00 - Jan-23 @ 12:00
Wind Visibility
340° at 11 knots 5 miles
Clouds
  • Overcast at 1,200' AGL
Conditions
  • Light Snow